Time;durP1;ratioP1;P1;durP2;ratioP2;P2;SDS_P1;SDS_P2;PMS_P1;PMS_P2;Temp;Humidity;BMP_temperature;BMP_pressure;BME280_temperature;BME280_humidity;BME280_pressure;Samples;Min_cycle;Max_cycle;Signal;HPM_P1;HPM_P2
2021/12/18 00:00:44;;;;;;;;;23.25;19.50;;;;;6.64;70.15;102814.16;5057762;28;45226;-62
2021/12/18 00:03:09;;;;;;;;;24.00;19.25;;;;;6.64;70.13;102810.66;5056836;28;62066;-63
2021/12/18 00:05:35;;;;;;;;;30.25;22.75;;;;;6.60;70.23;102812.53;5057075;28;59069;-62
2021/12/18 00:08:00;;;;;;;;;23.00;19.75;;;;;6.58;70.00;102805.69;5057706;28;45368;-61
2021/12/18 00:10:26;;;;;;;;;17.75;16.00;;;;;6.56;70.11;102803.09;5039823;28;45240;-62
2021/12/18 00:12:52;;;;;;;;;28.25;21.75;;;;;6.56;70.08;102804.88;5057551;28;45169;-62
2021/12/18 00:15:18;;;;;;;;;22.00;18.00;;;;;6.54;70.24;102807.53;5022704;28;47268;-62
2021/12/18 00:17:43;;;;;;;;;23.75;19.50;;;;;6.53;70.13;102806.69;5057267;28;46074;-64
2021/12/18 00:20:10;;;;;;;;;26.75;20.25;;;;;6.53;70.04;102800.59;5038666;28;66309;-62
2021/12/18 00:22:36;;;;;;;;;26.75;19.00;;;;;6.52;70.08;102796.28;5039790;28;45588;-62
2021/12/18 00:25:02;;;;;;;;;19.00;14.50;;;;;6.52;70.07;102801.50;5056269;28;67681;-63
2021/12/18 00:27:27;;;;;;;;;22.50;21.75;;;;;6.51;69.82;102802.41;5057264;28;45261;-62
2021/12/18 00:29:52;;;;;;;;;23.00;19.50;;;;;6.49;70.04;102804.22;5056564;28;58745;-62
2021/12/18 00:32:18;;;;;;;;;25.75;18.75;;;;;6.48;69.91;102795.56;5057262;28;45500;-62
2021/12/18 00:34:43;;;;;;;;;23.50;19.50;;;;;6.49;69.78;102796.38;5056157;28;69833;-61
2021/12/18 00:37:09;;;;;;;;;26.00;22.50;;;;;6.49;69.86;102794.66;5039193;28;45502;-63
2021/12/18 00:39:39;;;;;;;;;25.50;21.25;;;;;6.48;69.71;102784.22;5039170;28;45222;-61
2021/12/18 00:42:20;;;;;;;;;25.75;21.75;;;;;6.46;69.97;102783.44;5039852;28;45383;-62
2021/12/18 00:44:45;;;;;;;;;24.50;22.25;;;;;6.45;69.77;102784.34;5056776;28;45222;-62
2021/12/18 00:47:10;;;;;;;;;22.75;19.75;;;;;6.42;69.72;102780.09;5038219;28;70035;-63
2021/12/18 00:49:36;;;;;;;;;22.00;17.50;;;;;6.39;69.68;102780.19;5056317;28;65095;-62
2021/12/18 00:52:01;;;;;;;;;31.25;21.50;;;;;6.38;69.61;102787.16;5057033;28;45629;-63
2021/12/18 00:54:27;;;;;;;;;22.25;18.75;;;;;6.35;69.66;102782.06;5038759;28;46090;-62
2021/12/18 00:56:52;;;;;;;;;22.25;19.75;;;;;6.32;69.77;102782.19;5056869;28;45497;-63
2021/12/18 00:59:18;;;;;;;;;27.25;21.50;;;;;6.30;69.87;102788.34;5056696;28;49881;-62
2021/12/18 01:01:45;;;;;;;;;25.25;21.75;;;;;6.29;69.77;102789.25;5056848;28;45411;-61
2021/12/18 01:04:11;;;;;;;;;21.00;19.50;;;;;6.28;69.84;102788.41;5056652;28;45376;-63
2021/12/18 01:06:36;;;;;;;;;21.50;19.75;;;;;6.26;69.72;102795.44;5055780;28;67267;-60
2021/12/18 01:09:01;;;;;;;;;19.75;19.75;;;;;6.27;69.78;102801.50;5056061;28;63379;-62
2021/12/18 01:11:36;;;;;;;;;26.25;23.50;;;;;6.24;69.77;102798.09;5038768;28;45238;-61
2021/12/18 01:24:28;;;;;;;;;22.25;21.00;;;;;6.20;69.83;102803.47;5038410;28;45855;-62
2021/12/18 01:26:53;;;;;;;;;21.75;20.75;;;;;6.20;69.55;102811.31;5055361;28;67088;-62
2021/12/18 01:29:19;;;;;;;;;22.75;19.00;;;;;6.15;69.65;102811.44;5055829;28;62808;-62
2021/12/18 01:31:44;;;;;;;;;23.50;18.25;;;;;6.16;69.60;102812.31;5038604;28;45333;-63
2021/12/18 01:34:10;;;;;;;;;22.75;20.75;;;;;6.14;69.64;102804.50;5056188;28;45405;-62
2021/12/18 01:36:35;;;;;;;;;25.00;19.75;;;;;6.12;69.59;102806.31;5055482;28;69439;-62
2021/12/18 01:39:03;;;;;;;;;22.75;21.00;;;;;6.11;69.71;102804.59;5056216;28;45280;-61
2021/12/18 01:41:35;;;;;;;;;21.50;17.75;;;;;6.12;69.82;102810.69;5056430;28;45616;-62
2021/12/18 01:47:00;;;;;;;;;23.00;22.00;;;;;6.08;69.78;102810.81;5056093;28;45776;-62
2021/12/18 01:52:21;;;;;;;;;24.00;20.75;;;;;6.06;69.71;102812.59;5024684;28;45431;-62
2021/12/18 01:54:46;;;;;;;;;26.75;23.25;;;;;6.05;69.53;102810.91;5057849;28;46593;-62
2021/12/18 01:57:12;;;;;;;;;29.75;23.00;;;;;6.04;69.56;102809.19;5025170;28;45364;-61
2021/12/18 01:59:41;;;;;;;;;25.50;22.50;;;;;6.03;69.70;102810.09;5059461;28;47309;-61
2021/12/18 02:02:07;;;;;;;;;32.50;24.50;;;;;6.02;69.52;102805.78;5059654;28;45505;-62
2021/12/18 02:04:33;;;;;;;;;23.75;21.50;;;;;6.00;69.49;102815.41;5059524;28;45468;-62
2021/12/18 02:06:59;;;;;;;;;27.25;22.50;;;;;5.97;69.46;102807.66;5041801;28;45750;-62
2021/12/18 02:09:32;;;;;;;;;29.25;21.50;;;;;5.94;69.64;102813.84;5059558;28;45365;-63
2021/12/18 02:11:59;;;;;;;;;31.00;28.25;;;;;5.91;69.72;102808.72;5042615;28;45466;-62
2021/12/18 02:20:11;;;;;;;;;28.50;22.50;;;;;5.88;69.73;102813.16;5059465;28;45171;-62
2021/12/18 02:22:36;;;;;;;;;27.50;23.75;;;;;5.87;69.88;102808.84;5042468;28;45333;-63
2021/12/18 02:25:02;;;;;;;;;29.00;24.50;;;;;5.85;69.98;102808.03;5058924;28;45550;-63
2021/12/18 02:27:27;;;;;;;;;27.75;25.75;;;;;5.83;69.93;102807.25;5059074;28;45253;-63
2021/12/18 02:29:53;;;;;;;;;28.00;22.50;;;;;5.81;69.95;102806.47;5059167;28;45799;-62
2021/12/18 02:32:20;;;;;;;;;26.75;24.75;;;;;5.79;70.02;102803.88;5058854;28;52584;-62
2021/12/18 02:34:52;;;;;;;;;26.75;24.50;;;;;5.78;69.92;102803.03;5059046;28;46206;-61
2021/12/18 02:37:23;;;;;;;;;29.00;28.50;;;;;5.76;69.91;102798.75;5059015;28;45776;-62
2021/12/18 02:42:43;;;;;;;;;30.00;24.00;;;;;5.74;69.81;102797.94;5004009;28;45416;-62
2021/12/18 02:45:08;;;;;;;;;25.00;24.00;;;;;5.71;70.08;102796.31;5058959;28;45265;-61
2021/12/18 02:47:34;;;;;;;;;31.50;26.75;;;;;5.70;70.07;102797.22;5040821;28;45354;-62
2021/12/18 02:49:59;;;;;;;;;28.00;26.25;;;;;5.70;69.90;102801.56;5040957;28;45408;-63
2021/12/18 02:52:28;;;;;;;;;29.00;22.50;;;;;5.67;70.02;102799.91;5059019;28;45360;-63
2021/12/18 02:54:54;;;;;;;;;29.75;28.00;;;;;5.66;69.94;102806.03;5058693;28;46290;-62
2021/12/18 02:57:19;;;;;;;;;30.00;24.50;;;;;5.65;69.98;102807.78;5057655;28;72961;-62
2021/12/18 02:59:46;;;;;;;;;22.00;22.00;;;;;5.65;70.28;102801.72;5058832;28;45484;-62
2021/12/18 03:02:11;;;;;;;;;28.00;22.50;;;;;5.64;70.39;102793.03;5040914;28;45281;-61
2021/12/18 03:04:38;;;;;;;;;32.25;25.75;;;;;5.65;70.59;102796.50;5058528;28;46101;-62
2021/12/18 03:07:06;;;;;;;;;39.00;30.00;;;;;5.65;70.63;102793.88;5039913;28;45939;-63
2021/12/18 03:18:56;;;;;;;;;30.50;22.50;;;;;5.67;70.78;102793.81;5041118;28;45471;-63
2021/12/18 03:25:56;;;;;;;;;29.00;24.25;;;;;5.77;71.57;102801.34;5057936;28;45317;-61
2021/12/18 03:28:22;;;;;;;;;34.00;27.75;;;;;5.81;71.69;102801.25;5058200;28;45383;-63
2021/12/18 03:30:48;;;;;;;;;38.25;28.25;;;;;5.83;71.51;102799.44;5040449;28;45427;-61
2021/12/18 03:33:13;;;;;;;;;34.75;27.25;;;;;5.87;71.80;102806.22;5058395;28;45348;-61
2021/12/18 03:35:38;;;;;;;;;33.25;24.00;;;;;5.89;71.71;102804.44;5022545;28;72762;-62
2021/12/18 03:38:04;;;;;;;;;29.00;24.75;;;;;5.92;71.69;102807.81;5058205;28;45309;-62
2021/12/18 03:40:29;;;;;;;;;38.00;28.50;;;;;5.97;71.84;102806.81;5058213;28;45334;-62
2021/12/18 03:42:55;;;;;;;;;26.00;23.25;;;;;5.99;71.74;102798.00;5057925;28;47241;-63
2021/12/18 03:45:20;;;;;;;;;28.25;24.75;;;;;6.00;72.00;102794.53;5039894;28;46059;-61
2021/12/18 03:47:46;;;;;;;;;36.50;28.25;;;;;6.02;71.97;102800.56;5039850;28;45352;-63
2021/12/18 03:50:12;;;;;;;;;30.50;27.00;;;;;6.05;72.07;102799.63;5058114;28;45277;-62
2021/12/18 03:52:37;;;;;;;;;33.25;24.75;;;;;6.10;71.89;102795.06;5039131;28;65805;-62
2021/12/18 03:55:03;;;;;;;;;36.75;28.50;;;;;6.13;72.02;102801.97;5057746;28;46449;-62
2021/12/18 03:57:28;;;;;;;;;34.50;26.75;;;;;6.17;71.83;102790.53;5057632;28;45971;-62
2021/12/18 03:59:54;;;;;;;;;32.00;27.00;;;;;6.19;71.88;102791.31;5057010;28;67477;-63
2021/12/18 04:02:20;;;;;;;;;33.00;29.00;;;;;6.23;71.89;102785.94;5039860;28;45336;-61
2021/12/18 04:04:45;;;;;;;;;35.50;29.50;;;;;6.26;71.93;102781.50;5057498;28;48454;-61
2021/12/18 04:07:11;;;;;;;;;33.50;28.50;;;;;6.29;71.94;102777.06;5056721;28;68292;-62
2021/12/18 04:09:36;;;;;;;;;34.00;28.75;;;;;6.32;71.90;102776.09;5057834;28;45355;-62
2021/12/18 04:12:02;;;;;;;;;36.50;30.00;;;;;6.35;71.92;102771.63;5023143;28;45573;-62
2021/12/18 04:14:28;;;;;;;;;33.50;26.50;;;;;6.37;71.71;102777.63;5057429;28;46640;-62
2021/12/18 04:16:53;;;;;;;;;35.25;26.75;;;;;6.39;71.87;102774.97;5057395;28;45399;-63
2021/12/18 04:19:19;;;;;;;;;36.50;30.50;;;;;6.42;71.88;102779.22;5055748;28;63508;-64
2021/12/18 04:21:45;;;;;;;;;30.00;23.75;;;;;6.43;71.85;102775.72;5057650;28;45261;-61
2021/12/18 04:24:10;;;;;;;;;35.50;30.50;;;;;6.44;71.63;102773.06;5057349;28;46051;-64
2021/12/18 04:26:35;;;;;;;;;33.75;29.75;;;;;6.46;71.62;102779.06;5056272;28;62762;-63
2021/12/18 04:29:06;;;;;;;;;32.00;23.50;;;;;6.49;71.71;102778.09;5057480;28;45367;-62
2021/12/18 04:31:31;;;;;;;;;32.00;29.00;;;;;6.51;71.54;102776.28;5039320;28;45597;-62
2021/12/18 04:33:57;;;;;;;;;35.50;28.00;;;;;6.51;71.60;102769.31;5057062;28;45577;-62
2021/12/18 04:36:22;;;;;;;;;32.50;25.75;;;;;6.53;71.56;102777.97;5056739;28;53592;-61
2021/12/18 04:38:48;;;;;;;;;30.00;25.25;;;;;6.56;71.76;102782.22;5056498;28;61177;-61
2021/12/18 04:41:21;;;;;;;;;29.00;24.00;;;;;6.58;71.61;102780.41;5057169;28;45391;-61
2021/12/18 04:43:47;;;;;;;;;34.25;25.75;;;;;6.59;71.52;102778.66;5057047;28;45683;-62
2021/12/18 04:46:12;;;;;;;;;32.75;25.00;;;;;6.61;71.49;102776.84;5039023;28;45381;-62
2021/12/18 04:48:37;;;;;;;;;33.25;24.00;;;;;6.63;71.20;102783.69;5056183;28;65301;-62
2021/12/18 04:51:03;;;;;;;;;27.75;23.50;;;;;6.66;71.23;102786.22;5056050;28;69611;-62
2021/12/18 04:53:28;;;;;;;;;32.75;26.75;;;;;6.67;71.26;102787.03;5056003;28;70800;-62
2021/12/18 04:55:53;;;;;;;;;33.00;26.75;;;;;6.67;71.09;102790.53;5021527;28;64866;-62
2021/12/18 04:58:19;;;;;;;;;26.00;24.50;;;;;6.70;71.19;102796.56;5038918;28;45495;-63
2021/12/18 05:00:47;;;;;;;;;30.50;27.00;;;;;6.70;71.22;102799.16;5056007;28;63292;-62
2021/12/18 05:03:13;;;;;;;;;29.50;23.25;;;;;6.71;70.97;102798.25;5055984;28;45288;-61
2021/12/18 05:05:39;;;;;;;;;28.00;25.75;;;;;6.72;70.95;102805.19;5056737;28;45313;-62
2021/12/18 05:08:04;;;;;;;;;30.25;25.25;;;;;6.73;70.93;102796.44;5056748;28;45362;-62
2021/12/18 05:10:30;;;;;;;;;30.25;24.75;;;;;6.73;70.91;102801.66;5038851;28;45519;-61
2021/12/18 05:12:55;;;;;;;;;30.00;23.25;;;;;6.74;70.87;102798.16;5056657;28;45302;-63
2021/12/18 05:15:21;;;;;;;;;31.50;26.25;;;;;6.75;70.84;102799.84;5055701;28;69674;-62
2021/12/18 05:17:46;;;;;;;;;28.75;24.00;;;;;6.76;70.79;102804.16;5037693;28;67608;-62
2021/12/18 05:20:11;;;;;;;;;30.00;25.75;;;;;6.76;70.83;102796.34;5055825;28;67646;-62
2021/12/18 05:22:37;;;;;;;;;29.00;25.25;;;;;6.79;70.80;102806.69;5038579;28;45590;-62
2021/12/18 05:25:03;;;;;;;;;33.50;26.00;;;;;6.79;70.69;102799.69;5056240;28;45486;-62
2021/12/18 05:27:29;;;;;;;;;33.50;27.25;;;;;6.80;70.64;102800.53;5056698;28;45327;-63
2021/12/18 05:29:54;;;;;;;;;38.00;26.25;;;;;6.80;70.52;102787.47;5055705;28;46092;-62
2021/12/18 05:32:19;;;;;;;;;30.00;26.50;;;;;6.79;70.32;102796.22;5055332;28;72119;-61
2021/12/18 05:34:45;;;;;;;;;34.00;28.00;;;;;6.78;70.38;102797.97;5056485;28;45473;-63
2021/12/18 05:37:19;;;;;;;;;32.00;26.50;;;;;6.77;70.39;102800.66;5038510;28;45492;-62
2021/12/18 05:39:48;;;;;;;;;32.25;27.75;;;;;6.75;70.21;102810.31;5055647;28;45622;-63
2021/12/18 05:42:14;;;;;;;;;31.00;24.00;;;;;6.72;70.32;102803.41;5038232;28;45718;-62
2021/12/18 05:44:39;;;;;;;;;30.75;25.25;;;;;6.72;70.14;102813.03;5056210;28;45796;-61
2021/12/18 05:47:05;;;;;;;;;29.00;25.00;;;;;6.68;70.24;102799.19;5038184;28;45262;-61
2021/12/18 05:49:30;;;;;;;;;30.00;24.00;;;;;6.66;70.22;102807.09;5056376;28;45395;-63
2021/12/18 05:51:55;;;;;;;;;29.25;24.00;;;;;6.64;70.35;102803.69;5055163;28;74618;-62
2021/12/18 05:54:21;;;;;;;;;31.75;27.50;;;;;6.63;70.30;102807.22;5055261;28;63384;-63
2021/12/18 05:56:46;;;;;;;;;24.50;23.25;;;;;6.61;70.25;102800.34;5056412;28;45404;-62
2021/12/18 05:59:12;;;;;;;;;32.50;25.50;;;;;6.59;70.30;102794.31;5055331;28;65227;-62
2021/12/18 06:01:37;;;;;;;;;30.75;23.00;;;;;6.56;70.05;102797.88;5055317;28;64793;-62
2021/12/18 06:04:03;;;;;;;;;32.00;24.50;;;;;6.53;70.21;102796.25;5055974;28;45371;-62
2021/12/18 06:06:30;;;;;;;;;31.00;26.25;;;;;6.52;70.00;102796.28;5055932;28;45313;-63
2021/12/18 06:08:55;;;;;;;;;30.25;25.25;;;;;6.47;70.07;102791.22;5055965;28;45395;-62
2021/12/18 06:11:22;;;;;;;;;25.75;23.75;;;;;6.44;70.10;102799.16;5037051;28;69029;-62
2021/12/18 06:13:48;;;;;;;;;35.00;26.25;;;;;6.41;70.00;102796.66;5055747;28;45984;-62
2021/12/18 06:16:14;;;;;;;;;32.75;26.00;;;;;6.39;70.03;102795.88;5037953;28;45336;-62
2021/12/18 06:18:40;;;;;;;;;27.00;19.00;;;;;6.37;70.17;102787.22;5037812;28;45464;-61
2021/12/18 06:21:06;;;;;;;;;28.25;24.75;;;;;6.34;70.13;102796.03;5055461;28;45238;-61
2021/12/18 06:23:31;;;;;;;;;29.25;25.00;;;;;6.31;70.08;102801.38;5055504;28;45257;-62
2021/12/18 06:25:57;;;;;;;;;27.75;24.50;;;;;6.31;70.00;102795.28;5055066;28;55742;-61
2021/12/18 06:28:22;;;;;;;;;28.75;26.25;;;;;6.29;69.97;102792.72;5055504;28;45814;-62
2021/12/18 06:30:49;;;;;;;;;29.75;24.75;;;;;6.25;70.07;102785.91;5054517;28;71831;-63
2021/12/18 06:33:14;;;;;;;;;26.25;21.25;;;;;6.22;70.30;102789.44;5055596;28;45418;-62
2021/12/18 06:35:40;;;;;;;;;35.50;25.25;;;;;6.20;70.22;102795.63;5055304;28;45552;-62
2021/12/18 06:38:05;;;;;;;;;30.50;27.50;;;;;6.19;70.28;102796.53;5036927;28;62868;-63
2021/12/18 06:40:31;;;;;;;;;31.50;24.50;;;;;6.15;70.16;102798.38;5037030;28;55516;-63
2021/12/18 06:42:56;;;;;;;;;31.00;25.50;;;;;6.14;70.29;102799.28;5057867;28;71689;-62
2021/12/18 06:45:21;;;;;;;;;31.50;25.25;;;;;6.12;70.33;102800.25;5058987;28;45348;-62
2021/12/18 06:47:47;;;;;;;;;30.25;24.25;;;;;6.11;70.20;102804.59;5040034;28;63823;-62
2021/12/18 06:50:12;;;;;;;;;31.50;25.00;;;;;6.09;70.25;102796.00;5040046;28;65595;-62
2021/12/18 06:52:37;;;;;;;;;32.50;24.00;;;;;6.07;70.28;102787.38;5058064;28;65011;-62
2021/12/18 06:55:04;;;;;;;;;30.75;25.25;;;;;6.05;70.20;102795.25;5057793;28;68293;-62
2021/12/18 06:57:29;;;;;;;;;33.00;26.00;;;;;6.04;70.26;102793.53;5024223;28;45329;-61
2021/12/18 06:59:54;;;;;;;;;27.75;23.50;;;;;6.02;70.34;102795.34;5058635;28;45607;-63
2021/12/18 07:02:20;;;;;;;;;24.50;24.25;;;;;6.01;70.58;102792.78;5057599;28;68747;-62
2021/12/18 07:04:45;;;;;;;;;31.50;22.75;;;;;6.00;70.61;102793.66;5040680;28;45194;-62
2021/12/18 07:07:10;;;;;;;;;32.50;25.50;;;;;5.98;70.88;102798.91;5058453;28;45488;-63
2021/12/18 07:09:36;;;;;;;;;27.25;22.75;;;;;5.98;70.17;102800.69;5058011;28;58979;-62
2021/12/18 07:12:01;;;;;;;;;28.75;25.75;;;;;5.95;70.63;102799.00;5039537;28;70790;-62
2021/12/18 07:14:27;;;;;;;;;33.00;25.25;;;;;5.92;70.62;102801.72;5040516;28;45353;-62
2021/12/18 07:16:53;;;;;;;;;34.50;26.00;;;;;5.90;70.47;102798.31;5058145;28;45418;-63
2021/12/18 07:19:18;;;;;;;;;33.50;25.50;;;;;5.88;70.69;102793.16;5057325;28;50289;-61
2021/12/18 07:21:43;;;;;;;;;36.75;27.50;;;;;5.85;70.50;102788.03;5038560;28;62638;-62
2021/12/18 07:24:09;;;;;;;;;34.25;26.50;;;;;5.85;70.55;102795.00;5057483;28;65202;-62
2021/12/18 07:26:34;;;;;;;;;34.75;26.00;;;;;5.82;70.70;102792.50;5057954;28;45558;-63
2021/12/18 07:29:00;;;;;;;;;36.00;26.00;;;;;5.81;70.58;102801.25;5057318;28;70523;-62
2021/12/18 07:31:26;;;;;;;;;29.25;27.00;;;;;5.79;70.82;102793.44;5058023;28;45328;-63
2021/12/18 07:33:51;;;;;;;;;30.75;24.75;;;;;5.79;70.73;102796.06;5023651;28;45360;-62
2021/12/18 07:36:16;;;;;;;;;30.75;27.00;;;;;5.77;70.62;102796.13;5058284;28;45394;-62
2021/12/18 07:38:42;;;;;;;;;28.50;27.25;;;;;5.76;70.74;102810.06;5039964;28;45426;-62
2021/12/18 07:41:07;;;;;;;;;29.75;26.75;;;;;5.75;70.60;102805.75;5057915;28;45262;-63
2021/12/18 07:43:33;;;;;;;;;38.25;26.50;;;;;5.74;70.77;102814.47;5039937;28;45467;-62
2021/12/18 07:45:58;;;;;;;;;39.75;32.00;;;;;5.73;70.50;102815.38;5057926;28;45491;-62
2021/12/18 07:48:23;;;;;;;;;35.50;27.50;;;;;5.72;70.58;102818.88;5057030;28;68354;-62
2021/12/18 07:50:49;;;;;;;;;26.00;24.50;;;;;5.71;70.58;102826.75;5057314;28;58886;-62
2021/12/18 07:53:16;;;;;;;;;32.25;27.50;;;;;5.70;70.56;102831.13;5057695;28;45325;-61
2021/12/18 07:55:42;;;;;;;;;36.25;28.50;;;;;5.69;70.47;102825.94;5058105;28;45555;-62
2021/12/18 07:58:07;;;;;;;;;31.75;26.25;;;;;5.66;70.61;102829.50;5039643;28;46112;-62
2021/12/18 08:00:32;;;;;;;;;35.25;25.25;;;;;5.63;70.57;102827.00;5057024;28;59073;-62
2021/12/18 08:02:58;;;;;;;;;32.25;26.25;;;;;5.61;70.66;102826.19;5057072;28;60732;-61
2021/12/18 08:05:23;;;;;;;;;34.25;25.75;;;;;5.61;70.48;102826.19;5056993;28;60651;-62
2021/12/18 08:07:49;;;;;;;;;27.25;23.25;;;;;5.58;70.67;102827.09;5056684;28;68891;-62
2021/12/18 08:10:14;;;;;;;;;34.75;28.50;;;;;5.56;70.67;102822.84;5057521;28;45386;-62
2021/12/18 08:12:40;;;;;;;;;34.00;25.75;;;;;5.56;70.80;102820.25;5057689;28;45344;-62
2021/12/18 08:15:06;;;;;;;;;30.50;26.00;;;;;5.56;71.01;102820.25;5056174;28;45241;-62
2021/12/18 08:17:31;;;;;;;;;22.75;22.50;;;;;5.57;70.93;102827.16;5057294;28;45391;-62
2021/12/18 08:19:57;;;;;;;;;28.25;23.50;;;;;5.56;70.79;102822.84;5057551;28;45403;-62
2021/12/18 08:22:22;;;;;;;;;30.25;25.75;;;;;5.57;71.29;102821.94;5056392;28;66597;-62
2021/12/18 08:24:48;;;;;;;;;33.50;25.00;;;;;5.58;71.00;102826.28;5056523;28;65727;-62
2021/12/18 08:27:13;;;;;;;;;28.50;25.50;;;;;5.58;70.96;102821.91;5056869;28;46273;-62
2021/12/18 08:29:38;;;;;;;;;30.00;24.75;;;;;5.58;70.98;102837.53;5057132;28;45261;-61
2021/12/18 08:32:04;;;;;;;;;30.50;27.00;;;;;5.58;71.07;102821.91;5056590;28;63432;-62
2021/12/18 08:34:29;;;;;;;;;28.75;24.50;;;;;5.59;71.11;102825.38;5056157;28;47760;-62
2021/12/18 08:36:55;;;;;;;;;34.50;26.25;;;;;5.59;71.24;102817.53;5057230;28;46054;-61
2021/12/18 08:39:20;;;;;;;;;32.25;26.75;;;;;5.60;71.21;102825.31;5056053;28;65986;-62
2021/12/18 08:41:46;;;;;;;;;33.75;26.25;;;;;5.62;71.12;102820.91;5039061;28;45627;-61
2021/12/18 08:44:12;;;;;;;;;31.25;27.50;;;;;5.65;71.01;102822.56;5056977;28;45436;-61
2021/12/18 08:46:37;;;;;;;;;27.25;25.25;;;;;5.68;71.11;102832.06;5038688;28;46550;-63
2021/12/18 08:49:02;;;;;;;;;38.00;27.25;;;;;5.69;71.26;102837.25;5056883;28;45349;-62
2021/12/18 08:51:28;;;;;;;;;27.50;24.75;;;;;5.72;71.04;102836.28;5039034;28;45819;-62
2021/12/18 08:53:53;;;;;;;;;33.50;27.00;;;;;5.73;70.98;102833.63;5056132;28;63357;-61
2021/12/18 08:56:19;;;;;;;;;32.00;23.50;;;;;5.76;70.84;102836.16;5037810;28;66785;-62
2021/12/18 08:58:44;;;;;;;;;29.75;26.00;;;;;5.79;70.82;102837.78;5056730;28;45370;-62
2021/12/18 09:01:09;;;;;;;;;37.75;30.25;;;;;5.82;71.07;102834.25;5038917;28;45829;-62
2021/12/18 09:03:35;;;;;;;;;27.50;24.50;;;;;5.86;70.99;102828.88;5055097;28;63261;-61
2021/12/18 09:06:01;;;;;;;;;35.75;31.00;;;;;5.87;70.86;102829.72;5055440;28;75254;-62
2021/12/18 09:08:26;;;;;;;;;33.50;26.50;;;;;5.91;70.64;102831.31;5038771;28;45868;-61
2021/12/18 09:10:52;;;;;;;;;28.25;25.50;;;;;5.92;70.47;102827.81;5056772;28;45300;-62
2021/12/18 09:13:17;;;;;;;;;38.75;27.00;;;;;5.94;70.74;102826.00;5057029;28;45332;-62
2021/12/18 09:15:43;;;;;;;;;26.75;22.75;;;;;5.97;70.32;102827.69;5073161;27;45541;-61
2021/12/18 09:18:08;;;;;;;;;29.75;26.00;;;;;5.99;70.62;102823.28;5070020;27;64920;-61
2021/12/18 09:20:34;;;;;;;;;28.25;23.75;;;;;6.02;70.41;102821.44;5052856;27;45443;-62
2021/12/18 09:23:00;;;;;;;;;30.75;24.00;;;;;6.05;70.36;102823.94;5062265;27;64304;-63
2021/12/18 09:25:26;;;;;;;;;26.75;22.75;;;;;6.09;70.39;102820.34;5083095;27;45361;-61
2021/12/18 09:27:51;;;;;;;;;25.75;23.50;;;;;6.14;70.33;102820.16;5054152;28;45492;-62
2021/12/18 09:30:17;;;;;;;;;29.50;24.00;;;;;6.17;70.21;102821.84;5065588;27;67280;-62
2021/12/18 09:32:42;;;;;;;;;64.50;49.50;;;;;6.25;70.17;102819.84;5063354;27;45597;-62
2021/12/18 09:35:08;;;;;;;;;51.50;41.50;;;;;6.32;70.03;102817.88;5063050;27;45528;-61
2021/12/18 09:37:34;;;;;;;;;30.50;26.50;;;;;6.37;69.96;102816.78;5066927;27;45780;-62
2021/12/18 09:39:59;;;;;;;;;28.25;25.25;;;;;6.45;69.88;102808.72;5062105;27;45350;-62
2021/12/18 09:42:24;;;;;;;;;29.75;25.25;;;;;6.56;69.71;102808.34;5070828;27;65783;-64
2021/12/18 09:44:50;;;;;;;;;31.75;27.75;;;;;6.71;69.70;102813.94;5071684;27;45423;-63
2021/12/18 09:47:15;;;;;;;;;27.50;22.00;;;;;6.90;69.26;102809.72;5075270;27;45279;-61
2021/12/18 09:49:41;;;;;;;;;26.75;24.75;;;;;7.12;68.94;102806.34;5053542;27;45304;-63
2021/12/18 09:52:06;;;;;;;;;31.75;25.50;;;;;7.38;68.42;102809.75;5061157;27;69398;-63
2021/12/18 09:54:32;;;;;;;;;28.00;24.50;;;;;7.64;67.81;102800.00;5076338;27;66999;-63
2021/12/18 09:56:57;;;;;;;;;31.00;25.75;;;;;7.91;67.34;102797.22;5073381;27;45667;-61
2021/12/18 09:59:22;;;;;;;;;29.50;24.25;;;;;8.19;66.55;102796.06;5062866;27;45429;-63
2021/12/18 10:01:48;;;;;;;;;28.25;25.75;;;;;8.44;66.15;102794.09;5069512;27;57347;-62
2021/12/18 10:04:43;;;;;;;;;28.50;24.50;;;;;8.74;65.36;102793.69;5061833;27;45455;-62
2021/12/18 10:07:18;;;;;;;;;29.50;25.75;;;;;9.03;64.76;102798.53;5048234;27;45413;-64
2021/12/18 10:09:43;;;;;;;;;31.75;27.00;;;;;9.27;63.68;102793.94;5075789;27;45204;-63
2021/12/18 10:12:17;;;;;;;;;27.00;23.25;;;;;9.51;63.42;102788.47;5071264;27;45768;-62
2021/12/18 10:14:45;;;;;;;;;25.00;24.50;;;;;9.76;62.93;102788.13;5062751;27;46527;-63
2021/12/18 10:17:22;;;;;;;;;23.25;22.50;;;;;10.00;62.26;102779.94;5038389;28;45767;-63
2021/12/18 10:19:48;;;;;;;;;30.25;25.00;;;;;10.27;61.75;102786.50;5049458;27;45390;-63
2021/12/18 10:22:13;;;;;;;;;32.50;28.25;;;;;10.50;61.11;102783.59;5067723;27;54396;-62
2021/12/18 10:24:41;;;;;;;;;28.00;23.75;;;;;10.73;60.45;102784.13;5068766;27;45304;-62
2021/12/18 10:27:33;;;;;;;;;26.00;25.25;;;;;10.97;60.08;102779.34;5048130;27;45469;-63
2021/12/18 10:30:16;;;;;;;;;25.50;24.50;;;;;11.18;59.47;102772.97;5065320;27;45551;-63
2021/12/18 10:32:53;;;;;;;;;29.75;26.50;;;;;11.34;58.25;102778.25;5068500;27;45355;-63
2021/12/18 10:35:19;;;;;;;;;26.00;21.50;;;;;11.45;57.34;102775.84;5044984;28;46616;-63
2021/12/18 10:37:44;;;;;;;;;30.50;24.00;;;;;11.54;57.80;102770.06;5052325;27;69604;-63
2021/12/18 10:40:10;;;;;;;;;29.25;21.50;;;;;11.61;57.39;102770.59;5060731;27;62276;-64
2021/12/18 10:42:42;;;;;;;;;26.50;23.50;;;;;11.67;56.70;102772.84;5073505;27;45681;-63
2021/12/18 10:45:16;;;;;;;;;23.00;22.75;;;;;11.73;56.71;102767.22;5077253;27;45487;-63
2021/12/18 10:48:01;;;;;;;;;28.00;25.50;;;;;11.80;56.46;102769.50;5096056;27;45313;-62
2021/12/18 10:50:30;;;;;;;;;24.25;21.25;;;;;11.82;55.59;102770.28;5066206;27;45364;-63
2021/12/18 10:53:04;;;;;;;;;19.50;19.25;;;;;11.77;55.28;102767.91;5066238;27;45298;-63
2021/12/18 10:55:36;;;;;;;;;21.75;20.75;;;;;11.73;55.66;102764.59;5049341;27;45667;-62
2021/12/18 10:58:03;;;;;;;;;21.50;19.25;;;;;11.70;55.87;102764.78;5064383;27;45309;-63
2021/12/18 11:00:58;;;;;;;;;24.00;20.50;;;;;11.64;55.72;102762.50;5057779;27;45336;-62
2021/12/18 11:03:33;;;;;;;;;26.25;21.75;;;;;11.60;56.09;102763.63;5067049;27;45340;-62
2021/12/18 11:06:18;;;;;;;;;24.50;20.75;;;;;11.54;55.71;102764.81;5063945;27;45339;-63
2021/12/18 11:08:52;;;;;;;;;21.00;19.00;;;;;11.45;54.83;102761.84;5068582;27;45450;-64
2021/12/18 11:13:38;;;;;;;;;23.25;21.25;;;;;11.38;55.76;102761.38;5046101;27;45322;-63
2021/12/18 11:14:16;;;;;;;;;25.75;22.75;;;;;11.34;56.15;102755.41;5063978;28;45542;-64
2021/12/18 11:16:44;;;;;;;;;20.75;18.75;;;;;11.31;56.11;102760.00;5069176;27;45775;-62
2021/12/18 11:19:13;;;;;;;;;24.50;20.75;;;;;11.30;56.09;102756.50;5077127;27;45357;-63
2021/12/18 11:21:43;;;;;;;;;19.75;18.00;;;;;11.30;56.00;102739.88;5056418;27;45354;-62
2021/12/18 11:24:09;;;;;;;;;22.75;21.75;;;;;11.31;56.36;102745.06;5045858;28;45626;-63
2021/12/18 11:26:44;;;;;;;;;24.50;18.75;;;;;11.34;56.47;102755.41;5057330;28;45495;-62
2021/12/18 11:29:23;;;;;;;;;23.75;19.00;;;;;11.37;56.16;102749.97;5065093;27;46031;-62
2021/12/18 11:31:48;;;;;;;;;19.75;16.50;;;;;11.39;56.11;102748.09;5055511;28;45485;-62
2021/12/18 11:34:15;;;;;;;;;23.25;20.00;;;;;11.40;56.09;102751.56;5065031;27;45462;-62
2021/12/18 11:36:41;;;;;;;;;16.75;16.75;;;;;11.39;55.99;102740.22;5052275;27;50667;-63
2021/12/18 11:39:08;;;;;;;;;19.50;19.25;;;;;11.40;56.04;102743.66;5042367;27;45485;-62
2021/12/18 11:41:33;;;;;;;;;18.75;18.25;;;;;11.40;56.28;102733.13;5040664;27;45278;-63
2021/12/18 11:43:58;;;;;;;;;22.00;20.50;;;;;11.41;56.42;102733.06;5052121;27;62999;-62
2021/12/18 11:46:29;;;;;;;;;22.25;20.00;;;;;11.43;55.94;102730.34;5068954;27;67955;-62
2021/12/18 11:48:56;;;;;;;;;22.00;19.50;;;;;11.44;56.44;102724.13;5066227;27;45995;-62
2021/12/18 11:51:21;;;;;;;;;23.00;21.75;;;;;11.43;56.29;102731.19;5062639;27;45383;-63
2021/12/18 11:53:47;;;;;;;;;24.75;21.00;;;;;11.42;56.50;102726.88;5061157;27;45523;-62